Flight Track Log - Related Links

Times and Time Zones

All times are in EDT time to prevent confusion due to time zone crossing. See the UAL4202 flight status page for this flight to view local times or setup timezone preferences in your user account.

Time Position Orientation Groundspeed Altitude Reporting Facility
EDT Latitude Longitude Course Direction KTS MPH feet Rate Location/Type
Mon 08:31:46 PM 38.7686 -90.3650 331° Northwest 164 189 2,000  Level FAA TRACON SMA TRACON (SMA)
Mon 08:32:06 PM 38.7886 -90.3694 350° North 183 211 2,700 2,000 Climbing FAA TRACON SMA TRACON (SMA)
Mon 08:32:25 PM 38.8058 -90.3722 353° North 200 230 3,300 1,500 Climbing FAA TRACON SMA TRACON (SMA)
Mon 08:32:46 PM 38.8244 -90.3664 14° North 227 261 3,700 1,463 Climbing FAA TRACON SMA TRACON (SMA)
Mon 08:33:06 PM 38.8461 -90.3447 38° Northeast 254 292 4,300 2,000 Climbing FAA TRACON SMA TRACON (SMA)
Mon 08:33:25 PM 38.8619 -90.3228 47° Northeast 270 311 5,000 1,950 Climbing FAA TRACON SMA TRACON (SMA)
Mon 08:33:46 PM 38.8664 -90.2931 79° East 283 326 5,600 2,049 Climbing FAA TRACON SMA TRACON (SMA)
Mon 08:34:06 PM 38.8647 -90.2625 94° East 283 326 6,400 2,769 Climbing FAA TRACON SMA TRACON (SMA)
Mon 08:34:25 PM 38.8614 -90.2236 96° East 284 327 7,400 2,400 Climbing FAA TRACON SMA TRACON (SMA)
Mon 08:34:46 PM 38.8575 -90.1917 99° East 291 335 8,000 1,902 Climbing FAA TRACON SMA TRACON (SMA)
Mon 08:35:06 PM 38.8539 -90.1592 98° East 299 344 8,700 2,308 Climbing FAA TRACON SMA TRACON (SMA)
Mon 08:35:25 PM 38.8494 -90.1178 98° East 306 352 9,500 1,950 Climbing FAA TRACON SMA TRACON (SMA)
Mon 08:35:46 PM 38.8461 -90.0831 97° East 317 365 10,000 1,171 Climbing FAA TRACON SMA TRACON (SMA)
Mon 08:36:06 PM 38.8417 -90.0461 99° East 333 383 10,300 1,077 Climbing FAA TRACON SMA TRACON (SMA)
Mon 08:36:25 PM 38.8369 -89.9981 97° East 354 407 10,700 1,200 Climbing FAA TRACON SMA TRACON (SMA)
Mon 08:36:46 PM 38.8328 -89.9572 97° East 370 426 11,100 878 Climbing FAA TRACON SMA TRACON (SMA)
Mon 08:37:06 PM 38.8278 -89.9147 99° East 385 443 11,300 1,231 Climbing FAA TRACON SMA TRACON (SMA)
Mon 08:37:25 PM 38.8225 -89.8608 97° East 398 458 11,900 1,650 Climbing FAA TRACON SMA TRACON (SMA)
Mon 08:37:46 PM 38.8181 -89.8167 97° East 403 464 12,400 1,756 Climbing FAA TRACON SMA TRACON (SMA)
Mon 08:38:06 PM 38.8131 -89.7733 98° East 404 465 13,100 2,000 Climbing FAA TRACON SMA TRACON (SMA)
Mon 08:38:25 PM 38.8072 -89.7181 98° East 406 467 13,700 1,650 Climbing FAA TRACON SMA TRACON (SMA)
Mon 08:38:46 PM 38.8031 -89.6744 97° East 404 465 14,200 1,317 Climbing FAA TRACON SMA TRACON (SMA)
Mon 08:39:06 PM 38.7983 -89.6297 98° East 407 468 14,600 1,500 Climbing FAA TRACON SMA TRACON (SMA)
Mon 08:39:26 PM 38.7922 -89.5742 98° East 410 472 15,200 1,500 Climbing FAA TRACON SMA TRACON (SMA)
Mon 08:39:46 PM 38.7883 -89.5294 96° East 414 476 15,600 1,350 Climbing FAA TRACON SMA TRACON (SMA)
Mon 08:40:06 PM 38.7889 -89.4836 89° East 417 480 16,100 1,500 Climbing FAA TRACON SMA TRACON (SMA)
Mon 08:40:26 PM 38.7928 -89.4261 85° East 421 484 16,600 1,350 Climbing FAA TRACON SMA TRACON (SMA)
Mon 08:40:46 PM 38.8000 -89.3803 79° East 426 490 17,000 1,050 Climbing FAA TRACON SMA TRACON (SMA)
Mon 08:41:06 PM 38.8064 -89.3336 80° East 429 494 17,300 1,050 Climbing FAA TRACON SMA TRACON (SMA)
Mon 08:41:26 PM 38.8139 -89.2747 81° East 436 502 17,700 1,385 Climbing FAA TRACON SMA TRACON (SMA)
Mon 08:41:45 PM 38.8211 -89.2278 79° East 437 503 18,200 1,200 Climbing FAA TRACON SMA TRACON (SMA)
Mon 08:42:06 PM 38.8272 -89.1794 81° East 441 507 18,500 1,317 Climbing FAA TRACON SMA TRACON (SMA)
Mon 08:42:26 PM 38.8358 -89.1192 80° East 446 513 19,100 1,538 Climbing FAA TRACON SMA TRACON (SMA)
Mon 08:42:45 PM 38.8425 -89.0714 80° East 446 513 19,500 600 Climbing FAA TRACON SMA TRACON (SMA)
Mon 08:43:06 PM 38.8425 -89.0714 90° East 446 513 19,500  Level FAA TRACON SMA TRACON (SMA)
Mon 08:43:26 PM 38.8425 -89.0714 90° East 446 513 19,500 1,440 Level FAA TRACON SMA TRACON (SMA)
Mon 08:44:21 PM 38.8706 -88.9014 78° East 448 516 21,300 1,513 Climbing Kansas City Center
Mon 08:45:21 PM 38.8919 -88.7408 80° East 455 524 22,400 1,190 Climbing Kansas City Center
Mon 08:46:22 PM 38.9139 -88.5592 81° East 461 531 23,700 1,152 Climbing Kansas City Center
Mon 08:47:26 PM 38.9450 -88.4000 76° East 456 525 24,800 1,150 Climbing Kansas City Center
Mon 08:48:22 PM 38.9856 -88.2453 71° East 462 532 26,000 1,231 Climbing Indianapolis Center
Mon 08:49:23 PM 39.0292 -88.0894 70° East 461 531 27,200 1,220 Climbing Indianapolis Center
Mon 08:50:25 PM 39.0725 -87.9364 70° East 457 526 28,500 1,220 Climbing Indianapolis Center
Mon 08:51:26 PM 39.1142 -87.7825 71° East 454 522 29,700 1,220 Climbing Indianapolis Center
Mon 08:52:28 PM 39.1567 -87.6297 70° East 451 519 31,000 1,268 Climbing Indianapolis Center
Mon 08:53:29 PM 39.1983 -87.4744 71° East 454 522 32,300 1,230 Climbing Indianapolis Center
Mon 08:54:30 PM 39.2414 -87.3164 71° East 461 531 33,500 1,171 Climbing Indianapolis Center
Mon 08:55:32 PM 39.2836 -87.1592 71° East 462 532 34,700 732 Climbing Indianapolis Center
Mon 08:56:33 PM 39.3303 -87.0019 69° East 468 539 35,000 148 Climbing Indianapolis Center
Mon 08:57:34 PM 39.3975 -86.8464 61° Northeast 491 565 35,000  Level Indianapolis Center
Mon 08:58:36 PM 39.4650 -86.6872 61° Northeast 500 575 35,000  Level Indianapolis Center
Mon 08:59:37 PM 39.5456 -86.4969 61° Northeast 502 578 35,000  Level Indianapolis Center
Mon 09:00:38 PM 39.6111 -86.3383 62° Northeast 499 574 35,000  Level Indianapolis Center
Mon 09:01:40 PM 39.6792 -86.1789 61° Northeast 502 578 35,000  Level Indianapolis Center
Mon 09:02:41 PM 39.7447 -86.0175 62° Northeast 503 579 35,000  Level Indianapolis Center
Mon 09:03:42 PM 39.8150 -85.8489 61° Northeast 504 580 35,000  Level Indianapolis Center
Mon 09:04:43 PM 39.8828 -85.6861 61° Northeast 506 582 35,000  Level Indianapolis Center
Mon 09:05:45 PM 39.9489 -85.5233 62° Northeast 504 580 35,000  Level Indianapolis Center
Mon 09:06:46 PM 40.0142 -85.3597 62° Northeast 505 581 35,000  Level Indianapolis Center
Mon 09:07:47 PM 40.0800 -85.1967 62° Northeast 504 580 35,000  Level Indianapolis Center
Mon 09:08:49 PM 40.1472 -85.0336 62° Northeast 504 580 35,000  Level Indianapolis Center
Mon 09:09:50 PM 40.2119 -84.8711 62° Northeast 497 572 35,000  Level Indianapolis Center
Mon 09:10:51 PM 40.2772 -84.7086 62° Northeast 499 574 35,000  Level Indianapolis Center
Mon 09:11:52 PM 40.3414 -84.5433 63° Northeast 503 579 35,000  Level Indianapolis Center
Mon 09:12:54 PM 40.4075 -84.3769 62° Northeast 507 583 35,000  Level Indianapolis Center
Mon 09:13:55 PM 40.4728 -84.2103 63° Northeast 507 583 35,000  Level Indianapolis Center
Mon 09:14:56 PM 40.5381 -84.0428 63° Northeast 509 586 35,000  Level Indianapolis Center
Mon 09:15:57 PM 40.6028 -83.8742 63° Northeast 509 586 35,000  Level Indianapolis Center
Mon 09:16:58 PM 40.6669 -83.7067 63° Northeast 509 586 35,000  Level Indianapolis Center
Mon 09:17:27 PM 40.7022 -83.6150 63° Northeast 512 589 35,000  Level Cleveland Center
Mon 09:18:27 PM 40.7669 -83.4453 63° Northeast 505 581 35,000  Level Cleveland Center
Mon 09:19:27 PM 40.8317 -83.2781 63° Northeast 505 581 35,000  Level Cleveland Center
Mon 09:20:27 PM 40.8917 -83.1075 65° Northeast 500 575 35,000  Level Cleveland Center
Mon 09:21:27 PM 40.9558 -82.9450 62° Northeast 500 575 35,000  Level Cleveland Center
Mon 09:22:27 PM 41.0175 -82.7764 64° Northeast 501 577 35,000  Level Cleveland Center
Mon 09:23:27 PM 41.0789 -82.6078 64° Northeast 501 577 35,000  Level Cleveland Center
Mon 09:24:27 PM 41.1403 -82.4414 64° Northeast 501 577 35,000  Level Cleveland Center
Mon 09:25:27 PM 41.1883 -82.2911 67° East 501 577 35,000  Level Cleveland Center
Mon 09:26:27 PM 41.2203 -82.1097 77° East 495 570 35,000  Level Cleveland Center
Mon 09:27:27 PM 41.2517 -81.9281 77° East 501 577 35,000  Level Cleveland Center
Mon 09:28:27 PM 41.2786 -81.7547 78° East 501 577 35,000  Level Cleveland Center
Mon 09:29:27 PM 41.3094 -81.5700 77° East 501 577 35,000  Level Cleveland Center
Mon 09:30:27 PM 41.3381 -81.3686 79° East 501 577 35,000  Level Cleveland Center
Mon 09:31:27 PM 41.3664 -81.1892 78° East 501 577 35,000  Level Cleveland Center
Mon 09:32:27 PM 41.3964 -81.0067 78° East 501 577 35,000  Level Cleveland Center
Mon 09:33:27 PM 41.4197 -80.8433 79° East 506 582 35,000  Level Cleveland Center
Mon 09:34:27 PM 41.4472 -80.6608 79° East 506 582 35,000  Level Cleveland Center
Mon 09:35:27 PM 41.4658 -80.4778 82° East 501 577 35,000  Level Cleveland Center
Mon 09:36:27 PM 41.4739 -80.2756 87° East 501 577 35,000  Level Cleveland Center
Mon 09:37:27 PM 41.4775 -80.0897 88° East 501 577 35,000  Level Cleveland Center
Mon 09:38:27 PM 41.4806 -79.9097 89° East 496 571 35,000  Level Cleveland Center
Mon 09:39:27 PM 41.4856 -79.7239 88° East 496 571 35,000  Level Cleveland Center
Mon 09:40:27 PM 41.4903 -79.5381 88° East 496 571 35,000  Level Cleveland Center
Mon 09:41:27 PM 41.4928 -79.3550 89° East 496 571 35,000  Level Cleveland Center
Mon 09:42:27 PM 41.4969 -79.1719 88° East 496 571 35,000  Level Cleveland Center
Mon 09:43:27 PM 41.5008 -78.9917 88° East 496 571 35,000  Level Cleveland Center
Mon 09:44:27 PM 41.5044 -78.8058 88° East 496 571 35,000  Level Cleveland Center
Mon 09:45:27 PM 41.5056 -78.6228 89° East 496 571 35,000 -511 Level Cleveland Center
Mon 09:47:23 PM 41.5117 -78.2708 89° East 499 574 33,500 -1,227 Descending New York Center
Mon 09:48:23 PM 41.5125 -78.0908 90° East 499 574 31,400 -1,250 Descending New York Center
Mon 09:49:23 PM 41.5050 -77.9069 93° East 499 574 31,000 -197 Descending New York Center
Mon 09:50:25 PM 41.4794 -77.7408 102° East 505 581 31,000  Level New York Center
Mon 09:51:22 PM 41.4544 -77.5583 100° East 505 581 31,000  Level New York Center
Mon 09:52:23 PM 41.4242 -77.3586 101° East 505 581 31,000  Level New York Center
Mon 09:53:22 PM 41.3967 -77.1761 101° East 505 581 31,000  Level New York Center
Mon 09:54:22 PM 41.3686 -76.9939 102° East 505 581 31,000 -893 Level New York Center
Mon 09:55:23 PM 41.3425 -76.8144 101° East 505 581 29,200 -2,281 Descending New York Center
Mon 09:56:23 PM 41.3014 -76.6397 107° East 500 575 26,400 -2,824 Descending New York Center
Mon 09:57:22 PM 41.2514 -76.4669 111° Southeast 500 575 23,600 -2,672 Descending New York Center
Mon 09:58:22 PM 41.2092 -76.3033 109° East 494 568 21,100 -2,529 Descending New York Center
Mon 09:59:23 PM 41.1683 -76.1483 109° East 460 529 18,500 -2,300 Descending New York Center
Mon 10:00:22 PM 41.1308 -76.0078 109° East 439 505 16,500 -2,269 Descending New York Center
Mon 10:01:22 PM 41.0897 -75.8531 109° East 417 480 14,000 -1,750 Descending New York Center
Mon 10:02:22 PM 41.0517 -75.7181 110° East 405 466 13,000 -595 Descending New York Center
Mon 10:03:23 PM 41.0136 -75.5833 110° East 393 452 12,800 -942 Descending New York Center
Mon 10:04:23 PM 40.9772 -75.4517 110° East 393 452 11,100 -1,240 Descending New York Center
Mon 10:05:24 PM 40.9461 -75.3422 111° Southeast 350 403 10,300 -1,240 Descending New York Center
Mon 10:06:24 PM 40.9222 -75.2556 110° East 294 338 8,600 -1,576 Descending New York Center
Mon 10:07:22 PM 40.8947 -75.1606 111° Southeast 276 318 7,200 -800 Descending New York Center
Mon 10:08:24 PM 40.8650 -75.0569 111° Southeast 276 318 7,000 -98 Descending New York Center
Mon 10:09:24 PM 40.8394 -74.9622 110° East 276 318 7,000 -101 Level New York Center
Mon 10:10:23 PM 40.8239 -74.8681 102° East 276 318 6,800 -504 Descending New York Center
Mon 10:11:23 PM 40.8589 -74.7603 67° East 276 318 6,000 -446 Descending New York Center
Mon 10:12:24 PM 40.8886 -74.6769 65° Northeast 281 323 5,900 -555 Descending New York Center
Mon 10:13:22 PM 40.9233 -74.5719 66° East 286 329 4,900 -958 Descending New York Center
Mon 10:14:23 PM 40.9283 -74.4842 86° East 271 312 4,000 -793 Descending New York Center
Mon 10:15:23 PM 40.9106 -74.3817 103° East 264 304 3,300 -682 Descending New York Center
Mon 10:15:51 PM 40.9000 -74.3333 106° East 250 288 3,000 -205 Descending New York TRACON
Mon 10:16:51 PM 40.8833 -74.2500 105° East 249 287 3,000  Level New York TRACON
Mon 10:17:51 PM 40.8667 -74.1667 105° East 223 257 3,000 -50 Level New York TRACON
Mon 10:18:51 PM 40.8500 -74.1167 114° Southeast 176 203 2,900 -250 Descending New York TRACON
Mon 10:19:51 PM 40.8167 -74.0833 143° Southeast 163 188 2,500 -632 Descending New York TRACON
Mon 10:20:45 PM 40.7667 -74.1167 207° Southwest 171 197 1,700 -842 Descending New York TRACON
Mon 10:21:45 PM 40.7333 -74.1333 201° Southwest 125 144 900 -750 Descending New York TRACON
Mon 10:22:45 PM 40.7000 -74.1500 201° Southwest 122 140 200 -700 Descending New York TRACON
Mon 10:24:00 PM 40.6833 -74.1667 102° East  Level FlightAware Approximate
Mon 10:31:00 PM 40.6925 -74.1687 102° East  Level Estimated
Mon 10:32:00 PM 40.6925 -74.1687 102° East  Level Estimated

Login

Don't have an account? Register now (free) for customized features, flight alerts, and more!